Terminal Aerodrome Forecast
Issued by NWS

Home | Current Version | Previous Version | Text Only | Print | Product List | Glossary On
Versions: 1 2 3 4 5 6 7 8 9 10 11 12 13 14 15 16 17 18 19 20 21 22 23 24 25
036
FTUS43 KDLH 210040 AAA
TAFBRD
TAF AMD
KBRD 210040Z 2101/2124 13005KT 3/4SM BR OVC002
     FM210200 10005KT 1SM -FZDZ OVC004
     FM211500 08005KT 2SM -RASN BR OVC007=

USA.gov is the U.S. government's official web portal to all federal, state and local government web resources and services.